< < Back
Terminal Aerodrome Forecast


Current Version              Previous Versions:   1  2  3  4  5  6  7  8  9  

Terminal Aerodrome Forecast

348
FTUS42 KJAX 290500
TAFJAX
TAF
KJAX 290533Z 2906/3006 00000KT P6SM SKC
     FM291500 VRB04KT P6SM SKC
     FM300200 00000KT P6SM SKC=

Latest METAR

770
SAUS80 KWBC 290900 CCA
MTRJAX
METAR KJAX 290856Z 00000KT 10SM CLR 02/01 A3030 RMK AO2 SLP261 T00170011
57005 $


USA.gov is the U.S. government's official web portal to all federal, state and local government web resources and services.